createdAt,value
2023-04-18T00:04:06.618Z,51.44
2023-04-18T00:14:08.627Z,51.35
2023-04-18T00:24:11.336Z,51.04
2023-04-18T00:34:14.085Z,50.97
2023-04-18T00:44:16.120Z,50.92
2023-04-18T00:54:21.817Z,51.17
2023-04-18T01:04:23.474Z,50.77
2023-04-18T01:14:25.372Z,50.92
2023-04-18T01:24:29.784Z,51.17
2023-04-18T01:34:31.626Z,50.93
2023-04-18T01:44:33.301Z,50.88
2023-04-18T01:54:35.736Z,50.62
2023-04-18T02:04:38.042Z,50.62
2023-04-18T02:14:40.068Z,50.44
2023-04-18T02:24:42.119Z,50.74
2023-04-18T02:34:44.225Z,50.58
2023-04-18T02:44:45.778Z,50.50
2023-04-18T02:54:47.476Z,50.55
2023-04-18T03:04:49.559Z,50.38
2023-04-18T03:14:51.783Z,50.54
2023-04-18T03:24:53.909Z,50.54
2023-04-18T03:34:56.018Z,50.15
2023-04-18T03:44:57.642Z,50.42
2023-04-18T03:55:00.356Z,50.16
2023-04-18T04:05:02.722Z,50.41
2023-04-18T04:15:05.906Z,50.34
2023-04-18T04:25:09.035Z,50.51
2023-04-18T04:35:11.691Z,50.46
2023-04-18T04:45:13.870Z,50.40
2023-04-18T04:55:16.024Z,50.64
2023-04-18T05:05:18.048Z,50.99
2023-04-18T05:15:20.481Z,51.12
2023-04-18T05:25:22.286Z,51.08
2023-04-18T05:35:23.908Z,51.22
2023-04-18T05:45:25.545Z,51.16
2023-04-18T05:55:27.179Z,51.31
2023-04-18T06:05:30.162Z,50.99
2023-04-18T06:15:32.064Z,51.18
2023-04-18T06:25:33.935Z,50.83
2023-04-18T06:35:36.609Z,50.73
